createdAt,value
2018-12-15T00:01:56.132Z,0.43
2018-12-15T00:04:23.975Z,0.43
2018-12-15T00:06:52.967Z,0.27
2018-12-15T00:09:20.937Z,0.27
2018-12-15T00:11:48.996Z,0.25
2018-12-15T00:14:16.978Z,0.33
2018-12-15T00:16:45.903Z,0.28
2018-12-15T00:19:14.295Z,0.18
2018-12-15T00:21:41.967Z,0.15
2018-12-15T00:24:09.673Z,0.27
2018-12-15T00:26:37.236Z,0.29
2018-12-15T00:29:05.070Z,0.33
2018-12-15T00:31:32.632Z,0.25
2018-12-15T00:34:00.186Z,0.33
2018-12-15T00:36:27.706Z,0.35
2018-12-15T00:38:56.065Z,0.47
2018-12-15T00:41:24.220Z,0.32
2018-12-15T00:43:52.101Z,0.33
2018-12-15T00:46:19.776Z,0.37
2018-12-15T00:48:47.567Z,0.42
2018-12-15T00:51:15.330Z,0.44
2018-12-15T00:53:43.288Z,0.38
2018-12-15T00:56:11.463Z,0.39
2018-12-15T00:58:40.067Z,0.38
2018-12-15T01:01:08.060Z,0.33
2018-12-15T01:03:35.779Z,0.18
2018-12-15T01:06:03.751Z,0.17
2018-12-15T01:08:31.381Z,0.30
2018-12-15T01:10:59.731Z,0.20
2018-12-15T01:13:27.879Z,0.28
2018-12-15T01:15:55.609Z,0.35
2018-12-15T01:18:24.991Z,0.35
2018-12-15T01:20:55.328Z,0.31
2018-12-15T01:23:22.928Z,0.37
2018-12-15T01:25:54.726Z,0.35
2018-12-15T01:28:22.864Z,0.30
2018-12-15T01:30:50.559Z,0.28
2018-12-15T01:33:18.526Z,0.43
2018-12-15T01:35:47.038Z,0.41
2018-12-15T01:38:14.616Z,0.31
2018-12-15T01:40:42.780Z,0.34
2018-12-15T01:43:10.519Z,0.28
2018-12-15T01:45:38.467Z,0.32
2018-12-15T01:48:07.114Z,0.33
2018-12-15T01:50:35.860Z,0.26
2018-12-15T01:53:04.525Z,0.40
2018-12-15T01:55:32.520Z,0.43
2018-12-15T01:58:00.330Z,0.31
2018-12-15T02:00:28.027Z,0.32
2018-12-15T02:02:55.926Z,0.27
2018-12-15T02:05:24.656Z,-0.18
2018-12-15T02:07:53.335Z,0.23
2018-12-15T02:10:21.401Z,0.28
2018-12-15T02:12:49.067Z,0.38
2018-12-15T02:15:16.753Z,0.35
2018-12-15T02:17:45.001Z,0.26
2018-12-15T02:20:13.126Z,0.19
2018-12-15T02:22:40.962Z,0.22
2018-12-15T02:25:08.615Z,0.21
2018-12-15T02:27:36.417Z,0.27
2018-12-15T02:30:05.394Z,0.28
2018-12-15T02:32:33.769Z,0.38
2018-12-15T02:35:01.377Z,0.41
2018-12-15T02:37:31.483Z,0.31
2018-12-15T02:40:00.173Z,0.32
2018-12-15T02:42:28.380Z,0.36
2018-12-15T02:44:56.558Z,0.26
2018-12-15T02:47:24.502Z,0.33
2018-12-15T02:49:52.262Z,0.31
2018-12-15T02:52:20.235Z,0.24
2018-12-15T02:54:48.698Z,0.23
2018-12-15T02:57:16.708Z,0.09
2018-12-15T02:59:44.699Z,0.10
2018-12-15T03:02:12.458Z,0.22
2018-12-15T03:04:39.980Z,0.20
2018-12-15T03:07:08.169Z,0.25
2018-12-15T03:09:36.178Z,0.23
2018-12-15T03:12:04.432Z,0.18
2018-12-15T03:14:32.271Z,0.11
2018-12-15T03:17:06.156Z,0.23
2018-12-15T03:19:33.683Z,0.19
2018-12-15T03:22:02.329Z,0.10
2018-12-15T03:24:30.332Z,0.13
2018-12-15T03:26:57.975Z,0.15
2018-12-15T03:29:25.580Z,0.10
2018-12-15T03:31:54.811Z,0.13
2018-12-15T03:34:22.686Z,0.13
2018-12-15T03:36:50.280Z,0.13
2018-12-15T03:39:17.804Z,0.13
2018-12-15T03:41:45.365Z,0.09
2018-12-15T03:44:12.895Z,0.24
2018-12-15T03:46:40.444Z,0.23
2018-12-15T03:49:08.001Z,0.12
2018-12-15T03:51:35.552Z,0.11
2018-12-15T03:54:03.060Z,0.13
2018-12-15T03:56:30.621Z,0.26
2018-12-15T03:58:58.144Z,0.13
2018-12-15T04:01:25.689Z,0.20
2018-12-15T04:03:53.224Z,0.22
2018-12-15T04:06:20.782Z,0.10
2018-12-15T04:08:48.298Z,0.04
2018-12-15T04:11:15.858Z,0.14
2018-12-15T04:13:43.390Z,0.20
2018-12-15T04:16:10.942Z,0.12
2018-12-15T04:18:38.469Z,0.18
2018-12-15T04:21:06.015Z,0.10
2018-12-15T04:23:33.717Z,0.13
2018-12-15T04:26:01.470Z,0.10
2018-12-15T04:28:29.008Z,0.18
2018-12-15T04:30:56.567Z,0.27
2018-12-15T04:33:24.113Z,0.26
2018-12-15T04:35:51.662Z,0.19
2018-12-15T04:38:19.223Z,0.01
2018-12-15T04:40:46.791Z,0.19
2018-12-15T04:43:14.396Z,0.18
2018-12-15T04:45:41.913Z,0.19
2018-12-15T04:48:11.249Z,0.25
2018-12-15T04:50:39.024Z,0.14
2018-12-15T04:53:06.588Z,0.20
2018-12-15T04:55:34.116Z,0.13
2018-12-15T04:58:01.770Z,0.21
2018-12-15T05:00:29.294Z,0.22
2018-12-15T05:02:56.843Z,0.28
2018-12-15T05:05:24.357Z,0.20
2018-12-15T05:07:51.896Z,0.09
2018-12-15T05:10:19.412Z,-0.01
2018-12-15T05:12:46.951Z,0.11
2018-12-15T05:15:14.463Z,0.07
2018-12-15T05:17:42.020Z,0.08
2018-12-15T05:20:09.542Z,0.12
2018-12-15T05:22:37.090Z,0.18
2018-12-15T05:25:05.200Z,0.03
2018-12-15T05:27:32.760Z,0.19
2018-12-15T05:30:00.286Z,0.00
2018-12-15T05:32:27.878Z,0.16
2018-12-15T05:34:55.403Z,0.13
2018-12-15T05:37:22.978Z,0.05
2018-12-15T05:39:50.501Z,0.13
2018-12-15T05:42:18.064Z,0.18
2018-12-15T05:44:45.583Z,0.09
2018-12-15T05:47:13.228Z,0.18
2018-12-15T05:49:40.748Z,0.12
2018-12-15T05:52:08.473Z,0.09
2018-12-15T05:54:36.040Z,0.13
2018-12-15T05:57:03.604Z,0.20
2018-12-15T05:59:31.172Z,0.21
2018-12-15T06:02:00.115Z,0.11
2018-12-15T06:04:27.659Z,0.07
2018-12-15T06:06:55.240Z,0.19
2018-12-15T06:09:22.783Z,0.11
2018-12-15T06:11:50.340Z,0.23
2018-12-15T06:14:17.849Z,0.19
2018-12-15T06:16:45.375Z,0.17
2018-12-15T06:19:12.930Z,0.09
2018-12-15T06:21:40.433Z,0.09
2018-12-15T06:24:07.978Z,0.22
2018-12-15T06:26:35.533Z,0.24
2018-12-15T06:29:03.185Z,0.21
2018-12-15T06:31:30.704Z,0.17
2018-12-15T06:33:58.243Z,0.18
2018-12-15T06:36:25.779Z,0.20
2018-12-15T06:38:53.325Z,0.19
2018-12-15T06:41:20.847Z,0.05
2018-12-15T06:43:48.406Z,-0.03
2018-12-15T06:46:16.026Z,0.02
2018-12-15T06:48:43.602Z,0.06
2018-12-15T06:51:11.132Z,-0.01
2018-12-15T06:53:38.697Z,-0.05
2018-12-15T06:56:06.222Z,-0.11
2018-12-15T06:58:33.762Z,-0.07
2018-12-15T07:01:01.296Z,-0.07
2018-12-15T07:03:28.842Z,-0.06
2018-12-15T07:05:56.380Z,-0.07
2018-12-15T07:08:23.939Z,-0.03
2018-12-15T07:10:51.472Z,-0.12
2018-12-15T07:13:19.010Z,-0.06
2018-12-15T07:15:46.526Z,0.01
2018-12-15T07:18:14.096Z,0.05
2018-12-15T07:20:41.632Z,-0.02
2018-12-15T07:23:09.200Z,0.07
2018-12-15T07:25:37.116Z,-0.19
2018-12-15T07:28:04.673Z,-0.23
2018-12-15T07:30:32.388Z,-0.03
2018-12-15T07:32:59.946Z,-0.09
2018-12-15T07:35:27.475Z,-0.07
2018-12-15T07:37:55.090Z,-0.01
2018-12-15T07:40:22.612Z,-0.06
2018-12-15T07:42:50.652Z,0.07
2018-12-15T07:45:18.360Z,0.12
2018-12-15T07:47:45.938Z,0.14
2018-12-15T07:50:13.522Z,0.09
2018-12-15T07:52:41.089Z,0.12
2018-12-15T07:55:08.694Z,-0.01
2018-12-15T07:57:36.246Z,0.07
2018-12-15T08:00:05.705Z,0.10
2018-12-15T08:02:33.260Z,0.28
2018-12-15T08:05:00.888Z,0.20
2018-12-15T08:07:28.571Z,0.17
2018-12-15T08:09:58.938Z,0.23
2018-12-15T08:12:32.085Z,0.12
2018-12-15T08:14:59.651Z,0.14
2018-12-15T08:17:27.232Z,0.26
2018-12-15T08:19:54.794Z,0.27
2018-12-15T08:22:26.084Z,0.25
2018-12-15T08:24:57.692Z,0.28
2018-12-15T08:27:25.813Z,0.30
2018-12-15T08:29:53.729Z,0.20
2018-12-15T08:32:21.359Z,0.17
2018-12-15T08:34:49.048Z,0.26
2018-12-15T08:37:16.595Z,0.32
2018-12-15T08:39:44.163Z,0.25
2018-12-15T08:42:11.690Z,0.29
2018-12-15T08:44:39.259Z,0.38
2018-12-15T08:47:06.816Z,0.36
2018-12-15T08:49:34.531Z,0.43
2018-12-15T08:52:02.056Z,0.43
2018-12-15T08:54:29.622Z,0.40
2018-12-15T08:56:57.186Z,0.36
2018-12-15T08:59:24.768Z,0.26
2018-12-15T09:01:52.347Z,0.37
2018-12-15T09:04:19.886Z,0.59
2018-12-15T09:06:47.420Z,0.40
2018-12-15T09:09:14.993Z,0.32
2018-12-15T09:11:42.546Z,0.27
2018-12-15T09:14:10.089Z,0.44
2018-12-15T09:16:37.620Z,0.35
2018-12-15T09:19:11.062Z,0.42
2018-12-15T09:21:34.786Z,0.44
2018-12-15T09:24:02.466Z,0.53
2018-12-15T09:26:29.994Z,0.50
2018-12-15T09:28:57.540Z,0.49
2018-12-15T09:31:25.189Z,0.72
2018-12-15T09:33:52.794Z,0.61
2018-12-15T09:36:20.377Z,0.44
2018-12-15T09:38:48.042Z,0.70
2018-12-15T09:41:15.673Z,0.70
2018-12-15T09:43:43.436Z,0.58
2018-12-15T09:46:11.131Z,0.61
2018-12-15T09:48:38.655Z,0.63
2018-12-15T09:51:06.415Z,0.68
2018-12-15T09:53:34.027Z,0.65
2018-12-15T09:56:01.699Z,0.67
2018-12-15T09:58:29.354Z,0.74
2018-12-15T10:00:57.110Z,0.74
2018-12-15T10:03:24.691Z,0.86
2018-12-15T10:05:52.323Z,0.99
2018-12-15T10:08:20.433Z,0.73
2018-12-15T10:10:48.297Z,0.87
2018-12-15T10:13:15.817Z,0.88
2018-12-15T10:15:43.358Z,0.73
2018-12-15T10:18:11.069Z,0.80
2018-12-15T10:20:38.756Z,0.83
2018-12-15T10:23:06.504Z,0.87
2018-12-15T10:25:34.606Z,0.99
2018-12-15T10:28:02.178Z,0.88
2018-12-15T10:30:35.212Z,0.76
2018-12-15T10:33:02.735Z,0.71
2018-12-15T10:35:30.270Z,0.74
2018-12-15T10:37:57.783Z,0.68
2018-12-15T10:40:25.331Z,0.70
2018-12-15T10:42:53.408Z,0.78
2018-12-15T10:45:20.963Z,0.67
2018-12-15T10:47:48.719Z,0.77
2018-12-15T10:50:16.723Z,0.97
2018-12-15T10:52:44.466Z,0.91
2018-12-15T10:55:12.077Z,0.91
2018-12-15T10:57:39.623Z,0.66
2018-12-15T11:00:10.878Z,0.78
2018-12-15T11:02:39.382Z,0.88
2018-12-15T11:05:07.145Z,1.03
2018-12-15T11:07:34.963Z,1.01
2018-12-15T11:10:02.578Z,0.87
2018-12-15T11:12:31.094Z,1.16
2018-12-15T11:14:59.325Z,0.82
2018-12-15T11:17:27.242Z,1.00
2018-12-15T11:19:54.750Z,0.85
2018-12-15T11:22:22.305Z,0.97
2018-12-15T11:24:50.055Z,0.87
2018-12-15T11:27:17.714Z,1.01
2018-12-15T11:29:45.342Z,1.00
2018-12-15T11:32:12.891Z,1.01
2018-12-15T11:34:40.567Z,1.14
2018-12-15T11:37:11.827Z,1.19
2018-12-15T11:39:39.400Z,1.15
2018-12-15T11:42:07.047Z,1.14
2018-12-15T11:44:34.619Z,1.03
2018-12-15T11:47:02.214Z,1.21
2018-12-15T11:49:29.857Z,1.15
2018-12-15T11:51:57.413Z,1.01
2018-12-15T11:54:26.096Z,0.96
2018-12-15T11:56:53.645Z,0.95
2018-12-15T11:59:21.170Z,1.13
2018-12-15T12:01:48.855Z,1.09
2018-12-15T12:04:16.446Z,0.97
2018-12-15T12:06:43.987Z,1.18
2018-12-15T12:09:11.642Z,1.12
2018-12-15T12:11:39.178Z,1.09
2018-12-15T12:14:06.683Z,0.94
2018-12-15T12:16:34.324Z,1.22
2018-12-15T12:19:02.968Z,1.14
2018-12-15T12:21:30.563Z,1.25
2018-12-15T12:23:58.080Z,1.20
2018-12-15T12:26:25.739Z,1.23
2018-12-15T12:28:53.349Z,1.40
2018-12-15T12:31:20.912Z,1.06
2018-12-15T12:33:48.496Z,1.29
2018-12-15T12:36:17.958Z,1.08
2018-12-15T12:38:45.656Z,1.21
2018-12-15T12:41:13.240Z,1.39
2018-12-15T12:43:40.800Z,1.37
2018-12-15T12:46:08.343Z,1.45
2018-12-15T12:48:35.847Z,1.23
2018-12-15T12:51:03.676Z,1.12
2018-12-15T12:53:31.188Z,1.18
2018-12-15T12:55:58.753Z,1.09
2018-12-15T12:58:26.351Z,1.15
2018-12-15T13:00:53.979Z,1.22
2018-12-15T13:03:21.525Z,1.44
2018-12-15T13:05:49.040Z,1.33
2018-12-15T13:08:16.579Z,1.32
2018-12-15T13:10:44.102Z,1.09
2018-12-15T13:13:11.650Z,1.16
2018-12-15T13:15:39.891Z,1.32
2018-12-15T13:18:07.531Z,1.25
2018-12-15T13:20:35.041Z,1.09
2018-12-15T13:23:02.614Z,1.19
2018-12-15T13:25:30.275Z,1.27
2018-12-15T13:27:57.984Z,1.34
2018-12-15T13:30:25.507Z,1.40
2018-12-15T13:32:53.052Z,1.42
2018-12-15T13:35:20.568Z,1.45
2018-12-15T13:37:48.591Z,1.51
2018-12-15T13:40:16.295Z,1.62
2018-12-15T13:42:44.064Z,1.61
2018-12-15T13:45:11.757Z,1.56
2018-12-15T13:47:39.773Z,1.73
2018-12-15T13:50:18.505Z,1.58
2018-12-15T13:52:46.287Z,1.50
2018-12-15T13:55:14.452Z,1.73
2018-12-15T13:57:42.035Z,1.74
2018-12-15T14:00:10.944Z,1.78
2018-12-15T14:02:40.430Z,1.58
2018-12-15T14:05:07.975Z,1.62
2018-12-15T14:07:35.521Z,1.58
2018-12-15T14:10:04.353Z,1.62
2018-12-15T14:12:31.938Z,1.43
2018-12-15T14:15:00.040Z,1.34
2018-12-15T14:17:27.598Z,1.46
2018-12-15T14:19:55.137Z,1.36
2018-12-15T14:22:22.838Z,1.48
2018-12-15T14:24:50.433Z,1.34
2018-12-15T14:27:18.904Z,1.36
2018-12-15T14:29:46.842Z,1.22
2018-12-15T14:32:14.536Z,1.25
2018-12-15T14:34:42.208Z,1.31
2018-12-15T14:37:09.791Z,1.23
2018-12-15T14:39:39.456Z,1.29
2018-12-15T14:42:08.436Z,1.31
2018-12-15T14:44:36.056Z,1.32
2018-12-15T14:47:04.168Z,1.21
2018-12-15T14:49:31.747Z,1.34
2018-12-15T14:51:59.273Z,1.03
2018-12-15T14:54:26.969Z,1.00
2018-12-15T14:56:54.612Z,0.97
2018-12-15T14:59:22.527Z,0.96
2018-12-15T15:01:50.082Z,0.91
2018-12-15T15:04:17.640Z,0.83
2018-12-15T15:06:45.363Z,0.81
2018-12-15T15:09:14.226Z,0.82
2018-12-15T15:11:41.838Z,0.67
2018-12-15T15:14:09.411Z,0.55
2018-12-15T15:16:36.963Z,0.48
2018-12-15T15:19:04.584Z,0.48
2018-12-15T15:21:32.194Z,0.45
2018-12-15T15:23:59.961Z,0.23
2018-12-15T15:26:27.511Z,0.20
2018-12-15T15:28:55.044Z,0.15
2018-12-15T15:31:22.590Z,0.01
2018-12-15T15:33:50.159Z,0.09
2018-12-15T15:36:17.756Z,-0.04
2018-12-15T15:38:45.728Z,-0.03
2018-12-15T15:41:13.234Z,-0.03
2018-12-15T15:43:40.957Z,-0.01
2018-12-15T15:46:08.475Z,-0.16
2018-12-15T15:48:36.066Z,-0.11
2018-12-15T15:51:03.596Z,-0.17
2018-12-15T15:53:31.140Z,-0.12
2018-12-15T15:55:58.656Z,-0.27
2018-12-15T15:58:26.285Z,-0.25
2018-12-15T16:00:53.826Z,-0.37
2018-12-15T16:03:21.980Z,-0.34
2018-12-15T16:05:49.548Z,-0.36
2018-12-15T16:08:17.142Z,-0.35
2018-12-15T16:10:45.025Z,-0.36
2018-12-15T16:13:12.579Z,-0.47
2018-12-15T16:15:40.193Z,-0.33
2018-12-15T16:18:07.739Z,-0.33
2018-12-15T16:20:35.629Z,-0.36
2018-12-15T16:23:03.364Z,-0.47
2018-12-15T16:25:30.983Z,-0.48
2018-12-15T16:27:58.515Z,-0.49
2018-12-15T16:30:26.071Z,-0.60
2018-12-15T16:32:53.637Z,-0.59
2018-12-15T16:35:21.293Z,-0.70
2018-12-15T16:37:49.210Z,-0.58
2018-12-15T16:40:16.756Z,-0.70
2018-12-15T16:42:44.276Z,-0.74
2018-12-15T16:45:11.950Z,-0.81
2018-12-15T16:47:39.738Z,-0.78
2018-12-15T16:50:09.611Z,-0.79
2018-12-15T16:52:37.390Z,-0.73
2018-12-15T16:55:07.153Z,-0.85
2018-12-15T16:57:34.883Z,-0.88
2018-12-15T17:00:02.439Z,-0.86
2018-12-15T17:02:30.212Z,-0.85
2018-12-15T17:04:57.769Z,-0.79
2018-12-15T17:07:25.296Z,-0.76
2018-12-15T17:09:52.856Z,-0.83
2018-12-15T17:12:20.382Z,-0.81
2018-12-15T17:14:47.927Z,-0.84
2018-12-15T17:17:15.451Z,-0.86
2018-12-15T17:19:43.017Z,-0.84
2018-12-15T17:22:10.555Z,-0.78
2018-12-15T17:24:38.102Z,-0.80
2018-12-15T17:27:05.644Z,-0.85
2018-12-15T17:29:33.206Z,-0.81
2018-12-15T17:32:00.728Z,-0.79
2018-12-15T17:34:28.309Z,-0.77
2018-12-15T17:36:55.825Z,-0.72
2018-12-15T17:39:23.391Z,-0.79
2018-12-15T17:41:50.911Z,-0.81
2018-12-15T17:44:18.525Z,-0.72
2018-12-15T17:46:46.040Z,-0.67
2018-12-15T17:49:13.594Z,-0.66
2018-12-15T17:51:41.123Z,-0.70
2018-12-15T17:54:08.674Z,-0.70
2018-12-15T17:56:36.183Z,-0.73
2018-12-15T17:59:03.982Z,-0.82
2018-12-15T18:01:31.506Z,-0.85
2018-12-15T18:03:59.036Z,-0.75
2018-12-15T18:06:26.583Z,-0.85
2018-12-15T18:08:54.104Z,-0.98
2018-12-15T18:11:21.652Z,-0.87
2018-12-15T18:13:49.158Z,-0.91
2018-12-15T18:16:16.858Z,-0.88
2018-12-15T18:18:44.356Z,-0.83
2018-12-15T18:21:11.902Z,-0.90
2018-12-15T18:23:39.407Z,-0.83
2018-12-15T18:26:06.964Z,-0.85
2018-12-15T18:28:35.265Z,-0.84
2018-12-15T18:31:02.814Z,-0.89
2018-12-15T18:33:36.878Z,-0.95
2018-12-15T18:35:59.907Z,-0.97
2018-12-15T18:38:27.411Z,-1.03
2018-12-15T18:40:54.956Z,-1.00
2018-12-15T18:43:22.529Z,-1.00
2018-12-15T18:45:50.089Z,-0.97
2018-12-15T18:48:17.632Z,-0.91
2018-12-15T18:50:45.224Z,-0.91
2018-12-15T18:53:12.753Z,-0.88
2018-12-15T18:55:40.316Z,-0.90
2018-12-15T18:58:09.850Z,-0.75
2018-12-15T19:00:37.419Z,-0.73
2018-12-15T19:03:04.932Z,-0.73
2018-12-15T19:05:32.509Z,-0.75
2018-12-15T19:08:00.078Z,-0.90
2018-12-15T19:10:27.624Z,-0.90
2018-12-15T19:12:55.155Z,-0.91
2018-12-15T19:15:22.726Z,-0.89
2018-12-15T19:17:50.250Z,-1.04
2018-12-15T19:20:17.822Z,-1.02
2018-12-15T19:22:45.386Z,-1.03
2018-12-15T19:25:13.042Z,-0.89
2018-12-15T19:27:41.443Z,-0.90
2018-12-15T19:30:09.200Z,-0.94
2018-12-15T19:32:36.744Z,-0.99
2018-12-15T19:35:04.894Z,-0.86
2018-12-15T19:37:32.973Z,-0.95
2018-12-15T19:40:00.599Z,-0.87
2018-12-15T19:42:28.197Z,-0.99
2018-12-15T19:44:55.793Z,-1.04
2018-12-15T19:47:23.408Z,-0.94
2018-12-15T19:49:50.956Z,-0.92
2018-12-15T19:52:18.507Z,-0.79
2018-12-15T19:54:47.011Z,-0.82
2018-12-15T19:57:14.616Z,-0.89
2018-12-15T19:59:42.141Z,-0.90
2018-12-15T20:02:10.164Z,-0.96
2018-12-15T20:04:37.792Z,-0.89
2018-12-15T20:07:05.511Z,-0.85
2018-12-15T20:09:33.119Z,-0.98
2018-12-15T20:12:01.188Z,-0.81
2018-12-15T20:14:29.011Z,-0.84
2018-12-15T20:16:56.579Z,-0.81
2018-12-15T20:19:24.224Z,-0.93
2018-12-15T20:21:51.918Z,-0.98
2018-12-15T20:24:19.458Z,-0.95
2018-12-15T20:26:47.153Z,-0.82
2018-12-15T20:29:14.773Z,-0.83
2018-12-15T20:31:42.416Z,-0.78
2018-12-15T20:34:10.031Z,-0.88
2018-12-15T20:36:37.615Z,-0.95
2018-12-15T20:39:06.533Z,-0.89
2018-12-15T20:41:34.155Z,-0.89
2018-12-15T20:44:01.706Z,-0.84
2018-12-15T20:46:29.287Z,-0.70
2018-12-15T20:48:56.935Z,-0.75
2018-12-15T20:51:24.515Z,-0.79
2018-12-15T20:53:52.085Z,-0.80
2018-12-15T20:56:19.643Z,-0.89
2018-12-15T20:58:47.182Z,-0.80
2018-12-15T21:01:14.761Z,-0.86
2018-12-15T21:03:42.316Z,-0.77
2018-12-15T21:06:09.946Z,-0.84
2018-12-15T21:08:37.495Z,-0.79
2018-12-15T21:11:06.626Z,-0.83
2018-12-15T21:13:34.157Z,-0.78
2018-12-15T21:16:01.726Z,-0.83
2018-12-15T21:18:29.231Z,-0.66
2018-12-15T21:20:57.058Z,-0.58
2018-12-15T21:23:24.607Z,-0.85
2018-12-15T21:25:52.135Z,-0.66
2018-12-15T21:28:19.705Z,-0.64
2018-12-15T21:30:47.240Z,-0.63
2018-12-15T21:33:14.805Z,-0.63
2018-12-15T21:35:42.339Z,-0.71
2018-12-15T21:38:09.912Z,-0.58
2018-12-15T21:40:37.443Z,-0.47
2018-12-15T21:43:05.002Z,-0.52
2018-12-15T21:45:32.524Z,-0.73
2018-12-15T21:48:00.134Z,-0.62
2018-12-15T21:50:28.658Z,-0.61
2018-12-15T21:52:56.225Z,-0.62
2018-12-15T21:55:23.765Z,-0.75
2018-12-15T21:57:51.325Z,-0.73
2018-12-15T22:00:18.849Z,-0.69
2018-12-15T22:02:46.424Z,-0.75
2018-12-15T22:05:13.976Z,-0.60
2018-12-15T22:07:41.688Z,-0.48
2018-12-15T22:10:09.308Z,-0.62
2018-12-15T22:12:37.362Z,-0.63
2018-12-15T22:15:06.115Z,-0.71
2018-12-15T22:17:34.039Z,-0.51
2018-12-15T22:20:01.684Z,-0.57
2018-12-15T22:22:29.228Z,-0.64
2018-12-15T22:24:56.837Z,-0.62
2018-12-15T22:27:24.386Z,-0.62
2018-12-15T22:29:51.900Z,-0.67
2018-12-15T22:32:19.487Z,-0.52
2018-12-15T22:34:47.177Z,-0.49
2018-12-15T22:37:14.724Z,-0.51
2018-12-15T22:39:42.544Z,-0.67
2018-12-15T22:42:10.591Z,-0.57
2018-12-15T22:44:38.601Z,-0.52
2018-12-15T22:47:06.672Z,-0.60
2018-12-15T22:49:34.430Z,-0.52
2018-12-15T22:52:02.125Z,-0.42
2018-12-15T22:54:31.932Z,-0.37
2018-12-15T22:57:01.199Z,-0.52
2018-12-15T22:59:29.131Z,-0.52
2018-12-15T23:01:56.663Z,-0.47
2018-12-15T23:04:24.759Z,-0.46
2018-12-15T23:06:52.552Z,-0.41
2018-12-15T23:09:21.119Z,-0.48
2018-12-15T23:11:48.688Z,-0.40
2018-12-15T23:14:16.239Z,-0.50
2018-12-15T23:16:43.776Z,-0.43
2018-12-15T23:19:11.655Z,-0.23
2018-12-15T23:21:39.283Z,-0.25
2018-12-15T23:24:06.846Z,-0.30
2018-12-15T23:26:36.627Z,-0.33
2018-12-15T23:29:04.363Z,-0.39
2018-12-15T23:31:32.015Z,-0.40
2018-12-15T23:33:59.639Z,-0.33
2018-12-15T23:36:27.304Z,-0.36
2018-12-15T23:38:54.930Z,-0.29
2018-12-15T23:41:22.769Z,-0.27
2018-12-15T23:43:50.445Z,-0.24
2018-12-15T23:46:18.060Z,-0.26
2018-12-15T23:48:45.928Z,-0.29
2018-12-15T23:51:13.592Z,-0.27
2018-12-15T23:53:41.575Z,-0.15
2018-12-15T23:56:09.411Z,-0.16
2018-12-15T23:58:37.197Z,-0.19
